createdAt,value
2018-09-04T00:00:40.016Z,93152.41
2018-09-04T00:03:08.185Z,93143.80
2018-09-04T00:05:36.219Z,93143.48
2018-09-04T00:08:04.450Z,93141.81
2018-09-04T00:10:32.683Z,93144.61
2018-09-04T00:13:00.906Z,93149.50
2018-09-04T00:15:29.074Z,93145.47
2018-09-04T00:17:57.171Z,93145.28
2018-09-04T00:20:25.242Z,93149.14
2018-09-04T00:22:53.411Z,93147.36
2018-09-04T00:25:21.464Z,93150.17
2018-09-04T00:27:49.576Z,93150.17
2018-09-04T00:30:17.745Z,93151.00
2018-09-04T00:32:45.900Z,93154.16
2018-09-04T00:35:14.049Z,93154.30
2018-09-04T00:37:42.157Z,93162.09
2018-09-04T00:40:10.478Z,93160.33
2018-09-04T00:42:38.805Z,93164.13
2018-09-04T00:45:06.961Z,93161.29
2018-09-04T00:47:34.994Z,93162.68
2018-09-04T00:50:03.301Z,93161.73
2018-09-04T00:52:31.524Z,93165.76
2018-09-04T00:54:59.724Z,93166.52
2018-09-04T00:57:27.804Z,93164.62
2018-09-04T00:59:55.965Z,93166.11
2018-09-04T01:02:24.083Z,93164.13
2018-09-04T01:04:52.104Z,93160.86
2018-09-04T01:07:20.095Z,93160.43
2018-09-04T01:09:48.105Z,93166.95
2018-09-04T01:12:16.244Z,93163.45
2018-09-04T01:14:44.416Z,93168.98
2018-09-04T01:17:12.464Z,93161.73
2018-09-04T01:19:40.673Z,93162.09
2018-09-04T01:22:08.738Z,93169.16
2018-09-04T01:24:36.723Z,93162.46
2018-09-04T01:27:04.846Z,93161.37
2018-09-04T01:29:32.803Z,93160.88
2018-09-04T01:32:00.767Z,93163.50
2018-09-04T01:34:28.808Z,93169.02
2018-09-04T01:36:56.822Z,93167.39
2018-09-04T01:39:24.914Z,93169.66
2018-09-04T01:41:53.003Z,93169.16
2018-09-04T01:44:20.990Z,93173.10
2018-09-04T01:46:49.049Z,93173.59
2018-09-04T01:49:17.101Z,93177.44
2018-09-04T01:51:45.164Z,93175.50
2018-09-04T01:54:13.272Z,93175.55
2018-09-04T01:56:41.466Z,93177.22
2018-09-04T01:59:09.755Z,93173.36
2018-09-04T02:01:37.921Z,93171.01
2018-09-04T02:04:06.300Z,93164.86
2018-09-04T02:06:34.340Z,93171.02
2018-09-04T02:09:02.613Z,93168.07
2018-09-04T02:11:30.704Z,93165.45
2018-09-04T02:13:59.001Z,93169.24
2018-09-04T02:16:27.215Z,93167.30
2018-09-04T02:18:55.213Z,93170.30
2018-09-04T02:21:23.313Z,93176.97
2018-09-04T02:23:51.354Z,93169.61
2018-09-04T02:26:19.437Z,93166.70
2018-09-04T02:28:47.507Z,93166.20
2018-09-04T02:31:15.560Z,93171.53
2018-09-04T02:33:44.890Z,93179.47
2018-09-04T02:36:13.014Z,93175.89
2018-09-04T02:38:41.029Z,93176.39
2018-09-04T02:41:09.208Z,93177.12
2018-09-04T02:43:37.271Z,93180.61
2018-09-04T02:46:05.723Z,93183.78
2018-09-04T02:48:34.012Z,93185.44
2018-09-04T02:51:02.130Z,93192.28
2018-09-04T02:53:30.267Z,93179.24
2018-09-04T02:55:58.762Z,93181.83
2018-09-04T02:58:26.895Z,93180.82
2018-09-04T03:00:55.230Z,93178.67
2018-09-04T03:03:23.351Z,93179.80
2018-09-04T03:05:51.537Z,93176.62
2018-09-04T03:08:19.625Z,93178.17
2018-09-04T03:10:47.742Z,93179.11
2018-09-04T03:13:15.762Z,93178.42
2018-09-04T03:15:43.981Z,93178.75
2018-09-04T03:18:12.280Z,93171.37
2018-09-04T03:20:40.530Z,93176.16
2018-09-04T03:23:08.764Z,93172.99
2018-09-04T03:25:37.017Z,93168.60
2018-09-04T03:28:05.243Z,93166.56
2018-09-04T03:30:33.512Z,93164.66
2018-09-04T03:33:01.490Z,93166.33
2018-09-04T03:35:29.537Z,93156.45
2018-09-04T03:37:57.565Z,93159.27
2018-09-04T03:40:25.749Z,93159.91
2018-09-04T03:42:53.924Z,93161.82
2018-09-04T03:45:22.021Z,93165.68
2018-09-04T03:47:50.412Z,93160.59
2018-09-04T03:50:18.559Z,93161.11
2018-09-04T03:52:46.857Z,93161.28
2018-09-04T03:55:15.388Z,93170.55
2018-09-04T03:57:43.643Z,93174.50
2018-09-04T04:00:12.280Z,93166.62
2018-09-04T04:02:40.844Z,93175.67
2018-09-04T04:05:09.413Z,93175.31
2018-09-04T04:07:37.737Z,93168.94
2018-09-04T04:10:06.149Z,93176.17
2018-09-04T04:12:34.486Z,93179.80
2018-09-04T04:15:03.031Z,93181.69
2018-09-04T04:17:31.398Z,93180.06
2018-09-04T04:19:59.721Z,93175.30
2018-09-04T04:22:28.045Z,93180.70
2018-09-04T04:24:56.368Z,93172.33
2018-09-04T04:27:24.674Z,93173.91
2018-09-04T04:29:52.977Z,93178.67
2018-09-04T04:32:21.473Z,93188.25
2018-09-04T04:34:49.739Z,93189.98
2018-09-04T04:37:18.033Z,93178.28
2018-09-04T04:39:46.345Z,93180.47
2018-09-04T04:42:14.639Z,93181.92
2018-09-04T04:44:42.931Z,93188.84
2018-09-04T04:47:11.273Z,93191.33
2018-09-04T04:49:39.526Z,93193.95
2018-09-04T04:52:07.761Z,93188.89
2018-09-04T04:55:00.865Z,93186.48
2018-09-04T04:57:38.168Z,93186.30
2018-09-04T05:00:09.586Z,93184.53
2018-09-04T05:02:37.909Z,93180.19
2018-09-04T05:05:06.883Z,93179.84
2018-09-04T05:07:35.675Z,93184.71
2018-09-04T05:10:04.114Z,93181.26
2018-09-04T05:12:32.583Z,93183.89
2018-09-04T05:15:00.986Z,93187.25
2018-09-04T05:17:29.461Z,93179.27
2018-09-04T05:19:57.844Z,93181.41
2018-09-04T05:22:26.167Z,93183.27
2018-09-04T05:24:54.856Z,93185.63
2018-09-04T05:27:23.320Z,93188.91
2018-09-04T05:29:51.707Z,93193.22
2018-09-04T05:32:25.239Z,93180.77
2018-09-04T05:34:53.659Z,93175.90
2018-09-04T05:37:22.059Z,93181.66
2018-09-04T05:39:50.731Z,93192.45
2018-09-04T05:42:26.433Z,93193.86
2018-09-04T05:44:54.639Z,93192.50
2018-09-04T05:47:33.075Z,93187.23
2018-09-04T05:50:18.854Z,93179.88
2018-09-04T05:52:47.257Z,93178.19
2018-09-04T05:55:43.511Z,93178.41
2018-09-04T05:58:54.158Z,93178.80
2018-09-04T06:01:22.895Z,93178.22
2018-09-04T06:03:51.353Z,93179.68
2018-09-04T06:06:19.586Z,93177.19
2018-09-04T06:08:47.937Z,93175.24
2018-09-04T06:11:16.009Z,93177.69
2018-09-04T06:13:44.229Z,93174.63
2018-09-04T06:16:12.353Z,93180.60
2018-09-04T06:18:40.527Z,93178.41
2018-09-04T06:21:08.635Z,93183.41
2018-09-04T06:23:36.732Z,93180.92
2018-09-04T06:26:04.847Z,93183.77
2018-09-04T06:28:33.122Z,93188.34
2018-09-04T06:31:01.333Z,93183.88
2018-09-04T06:33:29.549Z,93185.27
2018-09-04T06:35:57.917Z,93191.41
2018-09-04T06:38:26.294Z,93189.73
2018-09-04T06:40:54.513Z,93194.46
2018-09-04T06:43:22.726Z,93192.64
2018-09-04T06:45:51.007Z,93192.16
2018-09-04T06:48:25.569Z,93198.02
2018-09-04T06:51:19.619Z,93196.23
2018-09-04T06:53:47.935Z,93196.55
2018-09-04T06:56:16.141Z,93196.36
2018-09-04T06:58:44.565Z,93198.61
2018-09-04T07:01:12.789Z,93199.46
2018-09-04T07:03:41.201Z,93194.43
2018-09-04T07:06:09.895Z,93198.41
2018-09-04T07:08:38.375Z,93206.39
2018-09-04T07:11:06.822Z,93208.85
2018-09-04T07:13:35.042Z,93208.32
2018-09-04T07:16:03.720Z,93207.62
2018-09-04T07:18:32.471Z,93211.67
2018-09-04T07:21:00.853Z,93215.69
2018-09-04T07:23:29.366Z,93214.45
2018-09-04T07:25:58.307Z,93212.59
2018-09-04T07:28:26.817Z,93223.10
2018-09-04T07:30:55.506Z,93222.69
2018-09-04T07:33:25.492Z,93230.80
2018-09-04T07:35:54.062Z,93227.28
2018-09-04T07:38:22.845Z,93233.37
2018-09-04T07:40:51.367Z,93227.44
2018-09-04T07:43:20.143Z,93227.16
2018-09-04T07:45:48.302Z,93222.72
2018-09-04T07:48:16.568Z,93229.75
2018-09-04T07:50:44.647Z,93225.65
2018-09-04T07:53:12.742Z,93217.27
2018-09-04T07:55:41.053Z,93216.56
2018-09-04T07:58:09.561Z,93219.97
2018-09-04T08:00:38.118Z,93221.95
2018-09-04T08:03:06.426Z,93219.59
2018-09-04T08:05:34.911Z,93219.65
2018-09-04T08:08:03.349Z,93220.90
2018-09-04T08:10:35.947Z,93217.89
2018-09-04T08:13:06.275Z,93211.75
2018-09-04T08:15:35.218Z,93211.67
2018-09-04T08:18:03.277Z,93213.67
2018-09-04T08:20:31.464Z,93207.42
2018-09-04T08:22:59.487Z,93203.91
2018-09-04T08:25:27.778Z,93205.90
2018-09-04T08:27:55.866Z,93209.80
2018-09-04T08:30:24.264Z,93211.56
2018-09-04T08:32:52.466Z,93205.77
2018-09-04T08:35:20.530Z,93203.87
2018-09-04T08:37:50.928Z,93196.16
2018-09-04T08:40:19.144Z,93198.24
2018-09-04T08:42:47.282Z,93204.19
2018-09-04T08:45:15.499Z,93197.73
2018-09-04T08:47:43.841Z,93192.78
2018-09-04T08:50:12.074Z,93190.19
2018-09-04T08:52:40.383Z,93182.76
2018-09-04T08:55:08.715Z,93180.21
2018-09-04T08:57:36.763Z,93175.37
2018-09-04T09:00:05.350Z,93176.00
2018-09-04T09:02:33.580Z,93174.09
2018-09-04T09:05:01.729Z,93174.67
2018-09-04T09:07:29.904Z,93173.35
2018-09-04T09:09:58.172Z,93171.24
2018-09-04T09:12:26.335Z,93164.98
2018-09-04T09:14:54.448Z,93165.19
2018-09-04T09:17:22.719Z,93165.79
2018-09-04T09:19:50.883Z,93168.86
2018-09-04T09:22:19.147Z,93167.88
2018-09-04T09:24:47.384Z,93166.93
2018-09-04T09:27:15.794Z,93167.22
2018-09-04T09:29:44.379Z,93161.06
2018-09-04T09:32:12.654Z,93163.98
2018-09-04T09:34:40.971Z,93168.53
2018-09-04T09:37:09.311Z,93165.25
2018-09-04T09:39:37.423Z,93170.55
2018-09-04T09:42:05.469Z,93168.73
2018-09-04T09:44:33.801Z,93168.02
2018-09-04T09:47:04.189Z,93164.43
2018-09-04T09:49:33.227Z,93160.39
2018-09-04T09:52:01.510Z,93168.80
2018-09-04T09:54:29.803Z,93163.11
2018-09-04T09:56:58.927Z,93164.72
2018-09-04T09:59:28.889Z,93168.95
2018-09-04T10:02:02.882Z,93164.06
2018-09-04T10:04:31.009Z,93165.20
2018-09-04T10:06:59.177Z,93174.11
2018-09-04T10:09:27.335Z,93170.11
2018-09-04T10:11:55.491Z,93166.26
2018-09-04T10:14:23.679Z,93167.23
2018-09-04T10:16:52.005Z,93166.25
2018-09-04T10:19:20.208Z,93165.09
2018-09-04T10:21:48.558Z,93161.97
2018-09-04T10:24:16.879Z,93157.28
2018-09-04T10:26:45.328Z,93147.09
2018-09-04T10:29:13.565Z,93145.20
2018-09-04T10:31:41.841Z,93142.09
2018-09-04T10:34:10.202Z,93139.87
2018-09-04T10:36:38.525Z,93137.62
2018-09-04T10:39:12.943Z,93135.02
2018-09-04T10:41:41.225Z,93130.64
2018-09-04T10:44:09.634Z,93125.40
2018-09-04T10:46:37.828Z,93125.05
2018-09-04T10:49:06.128Z,93118.36
2018-09-04T10:51:34.324Z,93118.51
2018-09-04T10:54:02.612Z,93108.08
2018-09-04T10:56:30.858Z,93103.08
2018-09-04T10:58:59.075Z,93106.06
2018-09-04T11:01:27.166Z,93103.63
2018-09-04T11:03:55.508Z,93103.91
2018-09-04T11:06:23.855Z,93103.80
2018-09-04T11:08:52.212Z,93108.88
2018-09-04T11:11:20.651Z,93106.89
2018-09-04T11:13:49.133Z,93093.53
2018-09-04T11:16:17.833Z,93086.08
2018-09-04T11:18:46.168Z,93086.25
2018-09-04T11:21:14.318Z,93079.23
2018-09-04T11:23:42.510Z,93089.54
2018-09-04T11:26:10.751Z,93073.91
2018-09-04T11:28:42.561Z,93067.72
2018-09-04T11:31:10.945Z,93068.36
2018-09-04T11:33:39.180Z,93065.49
2018-09-04T11:36:07.331Z,93063.76
2018-09-04T11:38:35.426Z,93057.09
2018-09-04T11:41:03.941Z,93057.77
2018-09-04T11:43:34.021Z,93054.78
2018-09-04T11:46:02.427Z,93056.64
2018-09-04T11:48:30.647Z,93061.42
2018-09-04T11:50:59.307Z,93047.81
2018-09-04T11:53:27.537Z,93051.40
2018-09-04T11:55:55.967Z,93048.89
2018-09-04T11:58:24.063Z,93043.83
2018-09-04T12:00:52.333Z,93036.02
2018-09-04T12:03:20.806Z,93031.38
2018-09-04T12:05:49.073Z,93033.02
2018-09-04T12:08:17.188Z,93027.98
2018-09-04T12:10:45.665Z,93024.95
2018-09-04T12:13:18.377Z,93011.17
2018-09-04T12:15:46.489Z,93009.65
2018-09-04T12:18:14.733Z,93006.63
2018-09-04T12:20:44.608Z,93002.18
2018-09-04T12:23:13.019Z,92996.26
2018-09-04T12:25:41.974Z,92989.05
2018-09-04T12:28:10.147Z,92990.05
2018-09-04T12:30:38.641Z,92989.73
2018-09-04T12:33:07.221Z,92983.27
2018-09-04T12:35:35.824Z,92983.77
2018-09-04T12:38:04.917Z,92979.92
2018-09-04T12:40:33.372Z,92981.39
2018-09-04T12:43:02.799Z,92978.72
2018-09-04T12:45:36.999Z,92979.45
2018-09-04T12:48:05.331Z,92984.92
2018-09-04T12:50:34.461Z,92974.34
2018-09-04T12:53:02.814Z,92974.66
2018-09-04T12:55:31.469Z,92970.11
2018-09-04T12:58:00.390Z,92969.75
2018-09-04T13:00:28.633Z,92971.36
2018-09-04T13:02:57.265Z,92971.75
2018-09-04T13:05:25.601Z,92967.56
2018-09-04T13:07:53.764Z,92960.44
2018-09-04T13:10:21.954Z,92956.23
2018-09-04T13:12:50.121Z,92948.06
2018-09-04T13:15:18.508Z,92947.88
2018-09-04T13:17:46.789Z,92950.66
2018-09-04T13:20:15.009Z,92950.81
2018-09-04T13:22:43.220Z,92945.01
2018-09-04T13:25:11.560Z,92945.19
2018-09-04T13:27:39.672Z,92946.73
2018-09-04T13:30:09.369Z,92948.28
2018-09-04T13:32:38.663Z,92945.45
2018-09-04T13:35:08.031Z,92941.38
2018-09-04T13:37:36.352Z,92940.45
2018-09-04T13:40:04.955Z,92937.30
2018-09-04T13:42:33.337Z,92936.64
2018-09-04T13:45:01.870Z,92936.33
2018-09-04T13:47:33.449Z,92933.50
2018-09-04T13:50:01.756Z,92935.36
2018-09-04T13:52:31.972Z,92933.83
2018-09-04T13:55:00.539Z,92934.70
2018-09-04T13:57:29.392Z,92934.03
2018-09-04T13:59:57.713Z,92935.37
2018-09-04T14:02:26.394Z,92930.27
2018-09-04T14:04:54.549Z,92936.73
2018-09-04T14:07:22.914Z,92937.16
2018-09-04T14:09:51.182Z,92934.19
2018-09-04T14:12:19.491Z,92935.95
2018-09-04T14:17:46.138Z,92945.67
2018-09-04T14:20:14.319Z,92941.38
2018-09-04T14:22:42.499Z,92938.62
2018-09-04T14:25:10.820Z,92940.98
2018-09-04T14:27:38.987Z,92944.05
2018-09-04T14:30:21.163Z,92947.73
2018-09-04T14:32:35.512Z,92947.20
2018-09-04T14:35:03.894Z,92942.91
2018-09-04T14:37:32.321Z,92954.51
2018-09-04T14:40:08.175Z,92945.69
2018-09-04T14:42:36.461Z,92946.70
2018-09-04T14:45:04.798Z,92947.01
2018-09-04T14:47:33.060Z,92951.50
2018-09-04T14:50:01.341Z,92952.73
2018-09-04T14:52:35.801Z,92955.61
2018-09-04T14:55:04.141Z,92956.92
2018-09-04T14:57:32.344Z,92953.66
2018-09-04T15:00:00.491Z,92963.08
2018-09-04T15:02:28.720Z,92957.83
2018-09-04T15:04:56.781Z,92959.59
2018-09-04T15:07:25.085Z,92967.45
2018-09-04T15:09:53.226Z,92964.24
2018-09-04T15:12:21.440Z,92962.91
2018-09-04T15:14:49.786Z,92964.31
2018-09-04T15:17:17.997Z,92964.38
2018-09-04T15:19:46.329Z,92961.00
2018-09-04T15:22:14.704Z,92963.95
2018-09-04T15:24:43.005Z,92964.53
2018-09-04T15:27:11.419Z,92964.43
2018-09-04T15:29:39.710Z,92966.51
2018-09-04T15:32:08.112Z,92961.77
2018-09-04T15:34:36.415Z,92963.16
2018-09-04T15:37:04.757Z,92963.03
2018-09-04T15:39:33.123Z,92968.07
2018-09-04T15:42:01.237Z,92967.01
2018-09-04T15:44:29.441Z,92965.66
2018-09-04T15:46:57.798Z,92962.20
2018-09-04T15:49:31.452Z,92969.54
2018-09-04T15:51:59.636Z,92961.73
2018-09-04T15:54:29.636Z,92968.63
2018-09-04T15:56:58.447Z,92962.12
2018-09-04T15:59:27.368Z,92964.01
2018-09-04T16:01:55.919Z,92965.08
2018-09-04T16:04:24.384Z,92965.57
2018-09-04T16:06:52.809Z,92962.20
2018-09-04T16:09:21.188Z,92964.31
2018-09-04T16:11:49.575Z,92965.08
2018-09-04T16:14:17.834Z,92963.14
2018-09-04T16:16:46.087Z,92958.31
2018-09-04T16:19:14.348Z,92966.39
2018-09-04T16:21:42.473Z,92967.55
2018-09-04T16:24:11.894Z,92973.85
2018-09-04T16:26:40.493Z,92970.16
2018-09-04T16:29:08.937Z,92967.77
2018-09-04T16:31:37.837Z,92964.59
2018-09-04T16:34:06.408Z,92966.71
2018-09-04T16:36:34.856Z,92973.89
2018-09-04T16:39:04.676Z,92971.44
2018-09-04T16:41:33.043Z,92970.45
2018-09-04T16:44:01.192Z,92974.30
2018-09-04T16:46:30.056Z,92981.80
2018-09-04T16:48:58.388Z,92975.38
2018-09-04T16:51:26.912Z,92981.67
2018-09-04T16:53:55.442Z,92986.63
2018-09-04T16:56:23.670Z,92993.58
2018-09-04T16:58:51.958Z,92991.11
2018-09-04T17:01:20.227Z,92995.06
2018-09-04T17:03:48.562Z,92993.25
2018-09-04T17:06:16.943Z,92995.23
2018-09-04T17:08:45.464Z,92997.84
2018-09-04T17:11:13.750Z,92998.50
2018-09-04T17:13:42.145Z,92997.80
2018-09-04T17:16:10.421Z,93005.86
2018-09-04T17:18:38.717Z,93010.81
2018-09-04T17:21:06.896Z,93011.58
2018-09-04T17:23:35.172Z,93009.75
2018-09-04T17:26:03.392Z,93013.34
2018-09-04T17:28:32.517Z,93013.43
2018-09-04T17:31:01.193Z,93016.56
2018-09-04T17:33:29.532Z,93020.30
2018-09-04T17:35:57.795Z,93013.89
2018-09-04T17:38:26.132Z,93013.39
2018-09-04T17:40:54.530Z,93016.80
2018-09-04T17:43:23.252Z,93020.03
2018-09-04T17:45:51.656Z,93022.84
2018-09-04T17:48:20.234Z,93025.41
2018-09-04T17:50:48.843Z,93027.87
2018-09-04T17:53:17.257Z,93027.40
2018-09-04T17:55:45.497Z,93028.63
2018-09-04T17:58:14.119Z,93030.20
2018-09-04T18:00:42.439Z,93032.55
2018-09-04T18:03:10.688Z,93037.00
2018-09-04T18:05:40.755Z,93040.86
2018-09-04T18:08:09.171Z,93035.43
2018-09-04T18:10:37.496Z,93042.59
2018-09-04T18:13:05.697Z,93040.22
2018-09-04T18:15:34.066Z,93049.56
2018-09-04T18:18:02.349Z,93046.41
2018-09-04T18:20:30.768Z,93049.83
2018-09-04T18:22:59.090Z,93052.14
2018-09-04T18:25:27.803Z,93054.67
2018-09-04T18:27:55.907Z,93049.70
2018-09-04T18:30:24.118Z,93052.40
2018-09-04T18:32:52.487Z,93055.59
2018-09-04T18:35:20.786Z,93063.94
2018-09-04T18:37:49.222Z,93071.28
2018-09-04T18:40:17.584Z,93067.94
2018-09-04T18:42:46.196Z,93070.11
2018-09-04T18:45:25.553Z,93076.78
2018-09-04T18:47:54.201Z,93071.84
2018-09-04T18:50:22.538Z,93073.76
2018-09-04T18:52:50.904Z,93077.88
2018-09-04T18:55:19.235Z,93084.44
2018-09-04T18:57:47.646Z,93091.20
2018-09-04T19:00:15.985Z,93089.08
2018-09-04T19:02:44.078Z,93092.23
2018-09-04T19:05:12.410Z,93094.51
2018-09-04T19:07:40.714Z,93089.22
2018-09-04T19:10:09.065Z,93090.31
2018-09-04T19:12:37.335Z,93103.61
2018-09-04T19:15:05.611Z,93102.93
2018-09-04T19:18:12.035Z,93108.46
2018-09-04T19:20:40.377Z,93110.27
2018-09-04T19:23:08.865Z,93107.42
2018-09-04T19:25:37.379Z,93107.38
2018-09-04T19:28:05.598Z,93102.58
2018-09-04T19:30:34.115Z,93103.53
2018-09-04T19:33:02.355Z,93104.75
2018-09-04T19:35:30.900Z,93109.45
2018-09-04T19:37:59.529Z,93100.30
2018-09-04T19:40:27.842Z,93107.27
2018-09-04T19:42:56.337Z,93109.53
2018-09-04T19:45:24.726Z,93103.80
2018-09-04T19:47:53.331Z,93103.11
2018-09-04T19:50:21.673Z,93103.88
2018-09-04T19:52:49.973Z,93104.27
2018-09-04T19:55:18.431Z,93108.39
2018-09-04T19:57:46.804Z,93107.09
2018-09-04T20:00:15.206Z,93104.81
2018-09-04T20:02:43.632Z,93105.41
2018-09-04T20:05:11.982Z,93103.23
2018-09-04T20:07:40.126Z,93101.87
2018-09-04T20:10:08.681Z,93106.62
2018-09-04T20:12:37.145Z,93104.68
2018-09-04T20:15:05.622Z,93096.48
2018-09-04T20:17:33.939Z,93112.47
2018-09-04T20:20:02.157Z,93119.77
2018-09-04T20:22:30.411Z,93137.14
2018-09-04T20:24:58.619Z,93144.59
2018-09-04T20:27:27.191Z,93142.20
2018-09-04T20:29:55.479Z,93143.30
2018-09-04T20:32:24.436Z,93145.66
2018-09-04T20:34:52.664Z,93156.20
2018-09-04T20:37:20.985Z,93164.92
2018-09-04T20:39:49.350Z,93163.89
2018-09-04T20:42:17.466Z,93171.68
2018-09-04T20:44:45.880Z,93173.17
2018-09-04T20:47:14.403Z,93180.61
2018-09-04T20:49:42.631Z,93177.70
2018-09-04T20:52:10.916Z,93180.07
2018-09-04T20:54:39.153Z,93183.00
2018-09-04T20:57:25.730Z,93183.95
2018-09-04T21:00:07.234Z,93178.89
2018-09-04T21:02:46.537Z,93179.98
2018-09-04T21:05:26.704Z,93178.22
2018-09-04T21:08:11.111Z,93174.23
2018-09-04T21:10:39.812Z,93174.41
2018-09-04T21:13:08.366Z,93176.18
2018-09-04T21:15:36.626Z,93176.66
2018-09-04T21:18:05.263Z,93175.35
2018-09-04T21:20:33.529Z,93185.09
2018-09-04T21:23:01.792Z,93180.42
2018-09-04T21:25:29.888Z,93181.42
2018-09-04T21:27:57.860Z,93183.50
2018-09-04T21:30:25.988Z,93185.44
2018-09-04T21:32:53.998Z,93179.92
2018-09-04T21:35:22.080Z,93173.63
2018-09-04T21:37:50.162Z,93178.36
2018-09-04T21:40:18.395Z,93174.18
2018-09-04T21:42:46.683Z,93169.83
2018-09-04T21:45:14.799Z,93174.86
2018-09-04T21:47:42.941Z,93173.92
2018-09-04T21:50:11.366Z,93171.37
2018-09-04T21:52:39.480Z,93172.33
2018-09-04T21:55:07.860Z,93167.65
2018-09-04T21:57:35.897Z,93169.72
2018-09-04T22:00:05.101Z,93164.21
2018-09-04T22:02:33.157Z,93163.23
2018-09-04T22:05:01.554Z,93166.20
2018-09-04T22:07:29.982Z,93162.00
2018-09-04T22:09:58.314Z,93165.09
2018-09-04T22:12:26.661Z,93163.51
2018-09-04T22:14:54.989Z,93157.22
2018-09-04T22:17:23.056Z,93151.70
2018-09-04T22:19:51.107Z,93155.72
2018-09-04T22:22:19.104Z,93160.55
2018-09-04T22:24:47.125Z,93163.03
2018-09-04T22:27:15.342Z,93166.02
2018-09-04T22:29:43.650Z,93162.41
2018-09-04T22:32:12.898Z,93156.48
2018-09-04T22:34:40.916Z,93155.98
2018-09-04T22:37:09.179Z,93161.91
2018-09-04T22:39:37.207Z,93159.77
2018-09-04T22:42:05.361Z,93164.33
2018-09-04T22:44:33.622Z,93153.28
2018-09-04T22:47:01.904Z,93156.67
2018-09-04T22:49:30.377Z,93150.66
2018-09-04T22:51:59.473Z,93151.52
2018-09-04T22:54:27.591Z,93154.27
2018-09-04T22:56:55.701Z,93150.73
2018-09-04T22:59:23.952Z,93145.62
2018-09-04T23:01:51.972Z,93143.44
2018-09-04T23:04:20.103Z,93144.48
2018-09-04T23:06:48.107Z,93141.01
2018-09-04T23:09:16.193Z,93141.31
2018-09-04T23:11:44.234Z,93133.92
2018-09-04T23:14:12.295Z,93139.52
2018-09-04T23:16:40.369Z,93135.59
2018-09-04T23:19:08.525Z,93133.38
2018-09-04T23:21:36.760Z,93129.53
2018-09-04T23:24:05.149Z,93125.04
2018-09-04T23:26:33.336Z,93126.73
2018-09-04T23:29:01.499Z,93126.73
2018-09-04T23:31:29.635Z,93123.71
2018-09-04T23:33:57.804Z,93121.09
2018-09-04T23:36:25.922Z,93124.55
2018-09-04T23:38:54.046Z,93122.95
2018-09-04T23:41:22.342Z,93125.94
2018-09-04T23:43:50.521Z,93126.35
2018-09-04T23:46:18.604Z,93124.36
2018-09-04T23:48:46.754Z,93129.94
2018-09-04T23:51:14.971Z,93131.11
2018-09-04T23:53:43.066Z,93127.94
2018-09-04T23:56:11.280Z,93128.66
2018-09-04T23:58:39.386Z,93124.41
